Time;durP1;ratioP1;P1;durP2;ratioP2;P2;SDS_P1;SDS_P2;PMS_P1;PMS_P2;Temp;Humidity;BMP_temperature;BMP_pressure;BME280_temperature;BME280_humidity;BME280_pressure;Samples;Min_cycle;Max_cycle;Signal;HPM_P1;HPM_P2
2022/01/13 00:00:57;;;;;;;54.45;24.75;;;;;;;-5.44;97.09;102446.50;5590284;31;34238;-69
2022/01/13 00:04:00;;;;;;;53.70;25.40;;;;;;;-5.45;97.37;102450.81;5590344;31;34197;-70
2022/01/13 00:07:03;;;;;;;54.45;25.37;;;;;;;-5.49;97.32;102463.81;5589860;31;34170;-69
2022/01/13 00:10:07;;;;;;;53.47;25.80;;;;;;;-5.45;97.26;102470.66;5590506;31;34316;-70
2022/01/13 00:13:13;;;;;;;53.30;24.67;;;;;;;-5.46;97.33;102458.59;5590582;31;34273;-69
2022/01/13 00:23:38;;;;;;;52.53;25.67;;;;;;;-5.44;96.97;102462.03;5590030;31;34193;-70
2022/01/13 00:26:23;;;;;;;47.05;23.50;;;;;;;-5.59;98.01;102463.03;5589960;31;34511;-69
2022/01/13 00:29:28;;;;;;;50.15;23.77;;;;;;;-5.52;97.69;102454.34;5589379;31;35526;-70
2022/01/13 00:32:32;;;;;;;54.90;24.67;;;;;;;-5.57;97.83;102452.69;5590015;31;34789;-70
2022/01/13 00:35:35;;;;;;;52.38;24.73;;;;;;;-5.57;98.36;102450.09;5589229;31;34140;-70
2022/01/13 00:38:38;;;;;;;56.05;25.40;;;;;;;-5.46;98.23;102445.66;5590376;31;34128;-70
2022/01/13 00:41:41;;;;;;;57.83;26.50;;;;;;;-5.33;97.41;102461.06;5590164;31;34770;-70
2022/01/13 00:44:45;;;;;;;52.20;24.73;;;;;;;-5.23;96.73;102464.41;5590277;31;34788;-70
2022/01/13 00:47:48;;;;;;;49.15;23.52;;;;;;;-5.03;95.79;102457.22;5590146;31;34857;-70
2022/01/13 00:50:50;;;;;;;52.17;24.85;;;;;;;-4.99;95.41;102456.34;5589646;31;34252;-70
2022/01/13 00:53:54;;;;;;;52.95;23.85;;;;;;;-5.02;95.53;102464.13;5589826;31;34222;-69
2022/01/13 00:56:57;;;;;;;50.80;23.70;;;;;;;-4.98;95.29;102472.72;5589783;31;34548;-70
2022/01/13 01:00:00;;;;;;;46.90;22.27;;;;;;;-4.94;95.38;102475.25;5589771;31;34206;-70
2022/01/13 01:03:03;;;;;;;49.97;23.15;;;;;;;-4.86;94.89;102485.53;5589862;31;34610;-70
2022/01/13 01:06:06;;;;;;;49.60;22.92;;;;;;;-4.85;94.49;102477.75;5589082;31;34148;-70
2022/01/13 01:09:15;;;;;;;53.92;23.15;;;;;;;-4.84;94.49;102475.97;5589772;31;34666;-69
2022/01/13 01:12:18;;;;;;;46.30;19.45;;;;;;;-4.91;94.52;102479.53;5588965;31;34569;-70
2022/01/13 01:15:22;;;;;;;47.17;19.23;;;;;;;-4.88;94.46;102477.75;5590126;31;34236;-70
2022/01/13 01:24:58;;;;;;;39.72;18.45;;;;;;;-4.77;93.83;102487.13;5589943;31;34257;-70
2022/01/13 01:28:01;;;;;;;41.37;18.33;;;;;;;-4.83;94.34;102490.66;5589531;31;34622;-70
2022/01/13 01:31:04;;;;;;;44.30;18.45;;;;;;;-4.77;93.87;102479.38;5589853;31;34282;-70
2022/01/13 01:37:46;;;;;;;46.63;19.77;;;;;;;-4.94;94.87;102477.00;5548266;32;34111;-70
2022/01/13 01:40:48;;;;;;;43.05;18.70;;;;;;;-5.11;96.07;102476.31;5548446;32;34218;-70
2022/01/13 01:43:52;;;;;;;40.22;18.75;;;;;;;-5.18;96.56;102490.22;5548415;32;34051;-70
2022/01/13 01:46:58;;;;;;;49.65;19.02;;;;;;;-5.30;97.13;102486.03;5548373;32;34805;-70
2022/01/13 01:50:18;;;;;;;47.60;19.37;;;;;;;-5.46;97.97;102476.69;5548213;32;34318;-70
2022/01/13 01:53:22;;;;;;;50.40;19.40;;;;;;;-5.68;98.71;102488.13;5548189;32;34624;-70
2022/01/13 01:56:25;;;;;;;46.50;20.27;;;;;;;-5.84;99.42;102485.66;5535531;32;34118;-70
2022/01/13 01:59:31;;;;;;;50.78;20.90;;;;;;;-5.90;100.00;102495.22;5548152;32;34409;-70
2022/01/13 02:02:34;;;;;;;47.08;20.02;;;;;;;-5.93;100.00;102490.06;5548361;32;34480;-70
2022/01/13 02:05:37;;;;;;;49.25;20.55;;;;;;;-5.74;100.00;102491.59;5548259;32;34199;-69
2022/01/13 02:08:40;;;;;;;53.63;22.50;;;;;;;-5.96;100.00;102488.38;5548078;32;34662;-69
2022/01/13 02:11:46;;;;;;;52.85;22.92;;;;;;;-6.03;100.00;102488.44;5571327;31;34070;-69
2022/01/13 02:14:57;;;;;;;59.05;23.75;;;;;;;-6.04;100.00;102481.53;5589274;31;34208;-69
2022/01/13 02:18:04;;;;;;;56.97;24.02;;;;;;;-6.12;100.00;102481.59;5589008;31;34768;-69
2022/01/13 02:21:06;;;;;;;62.00;24.37;;;;;;;-6.12;100.00;102478.16;5588927;31;34238;-69
2022/01/13 02:24:10;;;;;;;55.47;23.67;;;;;;;-5.97;100.00;102480.63;5588841;31;34878;-69
2022/01/13 02:27:12;;;;;;;64.90;25.85;;;;;;;-6.01;100.00;102481.53;5588870;31;34307;-69
2022/01/13 02:30:15;;;;;;;59.67;25.05;;;;;;;-5.98;100.00;102486.66;5588700;31;34927;-69
2022/01/13 02:33:18;;;;;;;59.50;24.55;;;;;;;-5.98;100.00;102487.53;5588674;31;35019;-69
2022/01/13 02:36:22;;;;;;;60.78;25.62;;;;;;;-6.00;100.00;102506.50;5588680;31;34921;-69
2022/01/13 02:39:28;;;;;;;59.72;26.65;;;;;;;-6.01;100.00;102503.06;5588985;31;34260;-69
2022/01/13 02:42:30;;;;;;;66.87;26.62;;;;;;;-5.97;100.00;102498.72;5588469;31;34221;-69
2022/01/13 02:45:37;;;;;;;65.32;28.12;;;;;;;-5.89;100.00;102489.19;5588615;31;34207;-69
2022/01/13 02:48:39;;;;;;;70.53;28.12;;;;;;;-5.87;100.00;102488.31;5587673;31;34825;-70
2022/01/13 02:51:45;;;;;;;69.68;28.08;;;;;;;-5.90;100.00;102484.88;5588354;31;34132;-70
2022/01/13 02:54:48;;;;;;;68.28;27.58;;;;;;;-5.95;100.00;102474.56;5588346;31;34634;-69
2022/01/13 02:57:50;;;;;;;70.62;28.58;;;;;;;-5.91;100.00;102468.53;5588651;31;34300;-69
2022/01/13 03:00:53;;;;;;;66.05;28.08;;;;;;;-6.01;100.00;102466.91;5588311;31;34248;-69
2022/01/13 03:03:56;;;;;;;69.15;28.85;;;;;;;-6.07;100.00;102472.09;5588304;31;34141;-70
2022/01/13 03:06:59;;;;;;;71.30;28.92;;;;;;;-6.01;100.00;102476.38;5588202;31;33559;-69
2022/01/13 03:10:02;;;;;;;66.85;28.20;;;;;;;-6.04;100.00;102479.81;5588439;31;34547;-69
2022/01/13 03:13:07;;;;;;;61.65;27.17;;;;;;;-5.93;100.00;102485.78;5588312;31;34309;-70
2022/01/13 03:16:14;;;;;;;72.75;28.50;;;;;;;-5.88;100.00;102485.72;5587897;31;34512;-69
2022/01/13 03:19:17;;;;;;;69.03;28.60;;;;;;;-5.79;100.00;102494.22;5587892;31;34833;-69
2022/01/13 03:22:20;;;;;;;68.40;28.48;;;;;;;-5.77;100.00;102507.16;5586961;31;34948;-70
2022/01/13 03:25:24;;;;;;;66.80;28.08;;;;;;;-5.68;100.00;102517.41;5587777;31;34247;-70
2022/01/13 03:28:50;;;;;;;70.05;29.00;;;;;;;-5.48;100.00;102517.25;5587723;31;34817;-69
2022/01/13 03:31:53;;;;;;;72.60;28.60;;;;;;;-5.43;99.94;102516.34;5587614;31;34253;-70
2022/01/13 03:34:56;;;;;;;66.30;27.75;;;;;;;-5.33;99.38;102524.87;5587580;31;34295;-70
2022/01/13 03:37:58;;;;;;;68.75;27.58;;;;;;;-5.34;99.08;102516.25;5587600;31;34274;-69
2022/01/13 03:41:03;;;;;;;68.87;28.45;;;;;;;-5.45;100.00;102531.00;5588386;31;34235;-70
2022/01/13 03:44:15;;;;;;;69.40;27.77;;;;;;;-5.24;100.00;102517.00;5590324;31;34174;-70
2022/01/13 03:47:18;;;;;;;68.15;28.33;;;;;;;-5.30;100.00;102510.16;5590432;31;34524;-69
2022/01/13 03:50:21;;;;;;;68.55;29.23;;;;;;;-5.27;100.00;102511.84;5590094;31;34879;-70
2022/01/13 03:53:26;;;;;;;68.75;29.85;;;;;;;-5.43;100.00;102505.13;5590591;31;34358;-70
2022/01/13 03:56:47;;;;;;;73.45;30.35;;;;;;;-5.52;100.00;102502.62;5590498;31;34174;-70
2022/01/13 04:00:09;;;;;;;77.03;34.90;;;;;;;-5.72;100.00;102515.72;5589494;31;34212;-70
2022/01/13 04:03:15;;;;;;;85.07;37.35;;;;;;;-5.85;100.00;102499.44;5590175;31;34856;-70
2022/01/13 04:06:18;;;;;;;80.55;37.30;;;;;;;-5.90;100.00;102497.78;5589502;31;34858;-69
2022/01/13 04:09:50;;;;;;;83.78;38.55;;;;;;;-6.02;100.00;102501.34;5590153;31;34256;-69
2022/01/13 04:12:54;;;;;;;80.07;38.85;;;;;;;-5.99;100.00;102510.78;5534543;31;34049;-69
2022/01/13 04:15:57;;;;;;;83.00;37.85;;;;;;;-6.05;100.00;102496.19;5590048;31;34835;-69
2022/01/13 04:19:04;;;;;;;85.55;39.33;;;;;;;-6.22;100.00;102491.16;5590505;31;34696;-69
2022/01/13 04:22:08;;;;;;;83.37;38.65;;;;;;;-6.24;100.00;102477.37;5589321;31;34562;-69
2022/01/13 04:25:15;;;;;;;82.97;37.45;;;;;;;-6.28;100.00;102464.50;5589714;31;34248;-69
2022/01/13 04:28:20;;;;;;;83.35;38.20;;;;;;;-6.31;100.00;102449.88;5590360;31;34736;-70
2022/01/13 04:31:22;;;;;;;82.95;39.05;;;;;;;-6.42;100.00;102436.19;5589960;31;34811;-69
2022/01/13 04:34:26;;;;;;;80.43;37.35;;;;;;;-6.46;100.00;102433.63;5590397;31;34869;-69
2022/01/13 04:37:29;;;;;;;90.35;38.58;;;;;;;-6.57;100.00;102438.84;5589924;31;34611;-69
2022/01/13 04:40:33;;;;;;;83.53;37.83;;;;;;;-6.64;100.00;102445.81;5589962;31;34531;-69
2022/01/13 04:43:36;;;;;;;83.85;39.60;;;;;;;-6.69;100.00;102439.81;5589850;31;34828;-69
2022/01/13 04:46:39;;;;;;;83.20;38.22;;;;;;;-6.72;100.00;102444.97;5589961;31;34625;-70
2022/01/13 04:49:44;;;;;;;84.55;38.58;;;;;;;-6.72;100.00;102444.97;5589923;31;34161;-69
2022/01/13 04:52:47;;;;;;;87.18;40.78;;;;;;;-6.78;100.00;102460.50;5589735;31;34213;-70
2022/01/13 04:55:52;;;;;;;86.85;38.45;;;;;;;-6.65;100.00;102464.72;5589804;31;34353;-69
2022/01/13 04:58:56;;;;;;;81.95;38.38;;;;;;;-6.67;100.00;102466.44;5589865;31;34141;-69
2022/01/13 05:02:00;;;;;;;88.00;39.58;;;;;;;-6.64;100.00;102461.28;5589799;31;34153;-69
2022/01/13 05:05:04;;;;;;;86.07;39.67;;;;;;;-6.65;100.00;102461.28;5589874;31;34903;-69
2022/01/13 05:08:07;;;;;;;88.82;39.40;;;;;;;-6.57;100.00;102469.84;5589697;31;34227;-69
2022/01/13 05:11:10;;;;;;;79.93;37.85;;;;;;;-6.57;100.00;102471.56;5589623;31;34266;-69
2022/01/13 05:14:13;;;;;;;84.85;37.88;;;;;;;-6.37;100.00;102474.88;5588874;31;34543;-69
2022/01/13 05:17:45;;;;;;;86.45;39.15;;;;;;;-6.21;100.00;102487.72;5589619;31;34322;-69
2022/01/13 05:20:57;;;;;;;88.25;38.30;;;;;;;-6.31;100.00;102488.63;5589485;31;33904;-70
2022/01/13 05:24:01;;;;;;;84.68;36.90;;;;;;;-6.33;100.00;102497.22;5589554;31;34327;-69
2022/01/13 05:27:04;;;;;;;83.75;37.17;;;;;;;-6.43;100.00;102505.91;5589612;31;34162;-69
2022/01/13 05:30:08;;;;;;;82.65;38.25;;;;;;;-6.39;100.00;102507.63;5589589;31;34864;-69
2022/01/13 05:33:11;;;;;;;74.70;36.08;;;;;;;-6.22;100.00;102510.94;5589214;31;34716;-69
2022/01/13 05:36:14;;;;;;;76.62;36.60;;;;;;;-6.23;100.00;102514.41;5589521;31;34968;-70
2022/01/13 05:39:17;;;;;;;77.95;37.25;;;;;;;-6.28;100.00;102510.97;5589497;31;34895;-70
2022/01/13 05:42:21;;;;;;;79.05;36.35;;;;;;;-6.16;100.00;102516.09;5589405;31;34973;-69
2022/01/13 05:45:29;;;;;;;75.28;35.25;;;;;;;-6.14;100.00;102511.75;5589377;31;34931;-70
2022/01/13 05:48:31;;;;;;;79.30;34.42;;;;;;;-6.06;100.00;102497.06;5589199;31;34244;-70
2022/01/13 05:51:37;;;;;;;75.87;33.05;;;;;;;-5.85;100.00;102501.16;5589292;31;34243;-70
2022/01/13 05:54:40;;;;;;;75.93;31.35;;;;;;;-5.54;100.00;102486.25;5589265;31;34899;-70
2022/01/13 05:57:46;;;;;;;72.70;32.58;;;;;;;-5.29;100.00;102485.16;5589765;31;34187;-70
2022/01/13 06:00:48;;;;;;;66.57;28.20;;;;;;;-5.23;100.00;102495.44;5588409;31;34326;-70
2022/01/13 06:03:51;;;;;;;67.70;26.33;;;;;;;-5.18;100.00;102493.66;5588286;31;34976;-70
2022/01/13 06:06:54;;;;;;;61.70;26.37;;;;;;;-5.10;100.00;102486.66;5589223;31;34576;-70
2022/01/13 06:09:57;;;;;;;63.47;25.00;;;;;;;-5.03;100.00;102485.72;5589007;31;34803;-70
2022/01/13 06:12:59;;;;;;;59.78;23.35;;;;;;;-4.92;100.00;102490.75;5588981;31;34301;-70
2022/01/13 06:16:02;;;;;;;65.82;25.10;;;;;;;-4.83;100.00;102480.28;5588092;31;35519;-70
2022/01/13 06:19:05;;;;;;;58.65;24.65;;;;;;;-4.77;100.00;102477.63;5588909;31;34331;-71
2022/01/13 06:22:08;;;;;;;57.65;23.62;;;;;;;-4.80;99.94;102475.09;5587910;31;34962;-70
2022/01/13 06:25:12;;;;;;;58.38;23.90;;;;;;;-4.77;100.00;102472.47;5588651;31;34848;-70
2022/01/13 06:28:15;;;;;;;55.92;23.92;;;;;;;-4.72;100.00;102472.41;5588564;31;34262;-70
2022/01/13 06:31:18;;;;;;;56.60;25.50;;;;;;;-4.77;100.00;102477.63;5588399;31;34121;-70
2022/01/13 06:34:21;;;;;;;64.35;24.92;;;;;;;-4.79;100.00;102483.72;5588490;31;34851;-70
2022/01/13 06:37:23;;;;;;;60.15;25.17;;;;;;;-4.78;100.00;102486.28;5588360;31;34744;-70
2022/01/13 06:40:28;;;;;;;63.63;26.55;;;;;;;-4.75;100.00;102496.59;5588322;31;34931;-70
2022/01/13 06:43:33;;;;;;;68.72;26.23;;;;;;;-4.76;100.00;102487.13;5587082;31;34781;-70
2022/01/13 06:46:38;;;;;;;67.60;27.10;;;;;;;-4.79;100.00;102471.59;5587478;31;35209;-70
2022/01/13 06:49:41;;;;;;;59.33;26.15;;;;;;;-4.87;100.00;102479.47;5588302;31;34672;-70
2022/01/13 06:52:48;;;;;;;69.50;27.50;;;;;;;-4.98;100.00;102483.91;5587681;31;34285;-70
2022/01/13 06:55:51;;;;;;;63.55;26.25;;;;;;;-4.87;100.00;102483.78;5588114;31;34230;-70
2022/01/13 06:58:55;;;;;;;63.97;25.45;;;;;;;-4.98;100.00;102489.09;5587856;31;34825;-70
2022/01/13 07:02:00;;;;;;;65.78;27.15;;;;;;;-4.88;100.00;102477.75;5586694;31;34169;-71
2022/01/13 07:05:03;;;;;;;64.43;26.70;;;;;;;-4.80;100.00;102477.69;5587524;31;35076;-70
2022/01/13 07:08:10;;;;;;;64.72;26.90;;;;;;;-4.87;100.00;102482.06;5587871;31;34830;-70
2022/01/13 07:11:13;;;;;;;71.20;27.52;;;;;;;-4.74;100.00;102480.19;5587032;31;34167;-70
2022/01/13 07:14:15;;;;;;;64.22;25.60;;;;;;;-4.89;100.00;102478.63;5587629;31;34177;-70
2022/01/13 07:17:18;;;;;;;67.15;27.27;;;;;;;-4.86;100.00;102494.16;5589750;31;34298;-71
2022/01/13 07:20:21;;;;;;;63.53;26.12;;;;;;;-4.95;100.00;102498.56;5590356;31;34379;-71
2022/01/13 07:23:24;;;;;;;70.07;26.95;;;;;;;-4.99;100.00;102502.06;5590825;31;34527;-70
2022/01/13 07:26:27;;;;;;;64.18;26.85;;;;;;;-4.96;100.00;102492.53;5590391;31;34862;-71
2022/01/13 07:29:30;;;;;;;75.55;27.92;;;;;;;-4.89;100.00;102499.34;5590301;31;34248;-71
2022/01/13 07:32:33;;;;;;;67.60;28.15;;;;;;;-4.77;100.00;102500.94;5590343;31;34219;-70
2022/01/13 07:35:35;;;;;;;69.57;27.42;;;;;;;-4.60;100.00;102503.31;5590377;31;35031;-70
2022/01/13 07:38:40;;;;;;;68.15;28.08;;;;;;;-4.51;100.00;102498.88;5590102;31;34931;-71
2022/01/13 07:41:43;;;;;;;61.97;27.98;;;;;;;-4.39;99.78;102505.63;5590229;31;34294;-70
2022/01/13 07:44:49;;;;;;;70.93;27.37;;;;;;;-4.32;99.24;102514.16;5590610;31;34279;-71
2022/01/13 07:48:02;;;;;;;79.78;30.08;;;;;;;-4.33;99.43;102513.31;5590397;31;34838;-70
2022/01/13 07:51:13;;;;;;;66.85;27.90;;;;;;;-4.26;98.97;102519.28;5590145;31;34499;-71
2022/01/13 07:54:16;;;;;;;76.10;28.87;;;;;;;-4.13;98.81;102513.03;5590226;31;34201;-71
2022/01/13 07:57:18;;;;;;;70.87;28.80;;;;;;;-4.10;98.42;102523.34;5590172;31;34876;-71
2022/01/13 08:00:21;;;;;;;66.28;28.10;;;;;;;-3.98;98.19;102517.97;5590039;31;34202;-71
2022/01/13 08:03:24;;;;;;;65.85;29.63;;;;;;;-3.86;98.02;102510.00;5590077;31;34306;-71
2022/01/13 08:06:27;;;;;;;80.53;34.47;;;;;;;-3.87;97.55;102521.25;5589510;31;34818;-70
2022/01/13 08:09:29;;;;;;;70.57;29.45;;;;;;;-3.80;97.08;102514.25;5590196;31;34249;-70
2022/01/13 08:12:32;;;;;;;63.30;27.95;;;;;;;-3.65;96.66;102525.22;5590180;31;34263;-70
2022/01/13 08:15:36;;;;;;;73.87;27.87;;;;;;;-3.75;96.86;102521.06;5590019;31;34215;-72
2022/01/13 08:22:00;;;;;;;69.50;28.95;;;;;;;-3.42;97.17;102527.44;5589954;31;34459;-71
2022/01/13 08:25:03;;;;;;;67.18;27.25;;;;;;;-3.23;96.29;102535.75;5589913;31;34880;-71
2022/01/13 08:28:06;;;;;;;69.65;28.73;;;;;;;-3.31;96.03;102527.25;5589647;31;34187;-71
2022/01/13 08:31:14;;;;;;;69.00;27.98;;;;;;;-3.28;95.74;102512.47;5589914;31;34341;-71
2022/01/13 08:34:17;;;;;;;68.37;28.12;;;;;;;-3.20;96.85;102525.31;5589883;31;34947;-71
2022/01/13 08:37:20;;;;;;;66.22;28.33;;;;;;;-3.05;96.35;102525.03;5589565;31;34872;-71
2022/01/13 08:40:23;;;;;;;70.80;29.33;;;;;;;-2.84;95.43;102521.16;5589975;31;34606;-71
2022/01/13 08:43:28;;;;;;;62.95;27.73;;;;;;;-2.64;95.24;102517.28;5589803;31;34576;-71
2022/01/13 08:46:30;;;;;;;65.80;27.08;;;;;;;-2.49;94.38;102515.25;5589715;31;34804;-71
2022/01/13 08:49:33;;;;;;;60.70;25.37;;;;;;;-2.40;95.15;102515.91;5589610;31;34287;-72
2022/01/13 08:52:41;;;;;;;60.33;24.48;;;;;;;-2.10;97.12;102501.34;5589836;31;35570;-71
2022/01/13 08:55:45;;;;;;;63.72;25.23;;;;;;;-1.78;97.27;102519.66;5589759;31;34155;-72
2022/01/13 08:58:48;;;;;;;55.63;22.70;;;;;;;-1.62;97.68;102512.34;5589866;31;34818;-71
2022/01/13 09:01:51;;;;;;;54.15;23.48;;;;;;;-1.51;97.31;102507.72;5589818;31;34156;-72
2022/01/13 09:04:55;;;;;;;55.65;23.25;;;;;;;-1.41;97.13;102510.94;5589458;31;34207;-71
2022/01/13 09:07:57;;;;;;;56.08;23.05;;;;;;;-1.20;96.33;102512.97;5589502;31;34305;-71
2022/01/13 09:11:00;;;;;;;56.20;24.10;;;;;;;-1.09;95.92;102510.09;5589686;31;34125;-71
2022/01/13 09:14:02;;;;;;;61.55;23.50;;;;;;;-1.03;96.06;102508.19;5589689;31;34676;-71
2022/01/13 09:17:12;;;;;;;57.47;22.90;;;;;;;-0.89;95.68;102513.00;5589623;31;34908;-70
2022/01/13 09:20:15;;;;;;;52.03;21.40;;;;;;;-0.72;95.12;102507.28;5589576;31;35066;-71
2022/01/13 09:23:18;;;;;;;53.90;20.77;;;;;;;-0.50;94.73;102508.41;5589594;31;33907;-71
2022/01/13 09:26:21;;;;;;;50.47;19.45;;;;;;;-0.39;94.59;102498.50;5589197;31;34194;-71
2022/01/13 09:29:24;;;;;;;45.53;20.42;;;;;;;-0.29;94.51;102504.31;5589409;31;34214;-71
2022/01/13 09:32:26;;;;;;;49.83;20.80;;;;;;;-0.24;94.09;102505.84;5589563;31;34249;-70
2022/01/13 09:35:33;;;;;;;49.88;20.05;;;;;;;-0.25;94.28;102509.38;5589348;31;34186;-70
2022/01/13 09:38:36;;;;;;;48.55;19.83;;;;;;;-0.26;94.17;102520.72;5588112;31;34213;-70
2022/01/13 09:41:44;;;;;;;43.75;18.23;;;;;;;-0.14;93.86;102517.72;5589706;31;34070;-70
2022/01/13 09:44:48;;;;;;;45.28;20.48;;;;;;;-0.18;94.26;102507.41;5589209;31;34800;-70
2022/01/13 09:47:51;;;;;;;49.72;20.42;;;;;;;-0.16;94.50;102498.66;5588546;31;34402;-70
2022/01/13 09:50:59;;;;;;;44.70;19.75;;;;;;;-0.08;93.99;102488.81;5589008;31;34947;-70
2022/01/13 09:54:04;;;;;;;44.15;18.75;;;;;;;-0.10;94.29;102485.41;5589354;31;34116;-70
2022/01/13 09:57:08;;;;;;;39.72;18.45;;;;;;;0.05;94.27;102488.44;5589619;31;34565;-70
2022/01/13 10:00:13;;;;;;;43.33;18.20;;;;;;;0.32;92.89;102480.56;5588998;31;34209;-69
2022/01/13 10:03:26;;;;;;;42.35;18.35;;;;;;;0.33;92.80;102474.44;5589293;31;34935;-70
2022/01/13 10:06:29;;;;;;;40.03;17.83;;;;;;;0.62;91.75;102470.84;5588747;31;34861;-70
2022/01/13 10:09:52;;;;;;;39.80;17.55;;;;;;;0.73;91.03;102483.50;5588866;31;34313;-69
2022/01/13 10:13:04;;;;;;;37.00;16.98;;;;;;;0.80;90.74;102471.94;5589026;31;34240;-70
2022/01/13 10:16:23;;;;;;;37.63;15.73;;;;;;;0.92;89.95;102465.44;5588260;31;34352;-70
2022/01/13 10:19:32;;;;;;;42.22;16.30;;;;;;;1.07;89.26;102457.00;5588990;31;34621;-70
2022/01/13 10:22:36;;;;;;;36.42;15.73;;;;;;;1.03;89.04;102465.88;5588913;31;34194;-70
2022/01/13 10:25:40;;;;;;;43.13;16.50;;;;;;;1.08;88.80;102458.72;5588726;31;34288;-69
2022/01/13 10:28:51;;;;;;;37.67;16.55;;;;;;;1.22;88.45;102448.59;5588792;31;35120;-69
2022/01/13 10:31:54;;;;;;;40.67;16.90;;;;;;;1.13;88.49;102465.50;5588755;31;34543;-69
2022/01/13 10:35:02;;;;;;;38.78;16.65;;;;;;;1.17;87.91;102451.41;5588706;31;34250;-70
2022/01/13 10:38:05;;;;;;;38.55;16.20;;;;;;;0.98;89.05;102439.06;5588684;31;34360;-69
2022/01/13 10:42:01;;;;;;;39.63;16.35;;;;;;;1.00;88.86;102450.31;5590133;31;35040;-71
2022/01/13 10:44:55;;;;;;;36.63;16.35;;;;;;;0.89;89.43;102445.47;5588350;31;35524;-69
2022/01/13 10:48:15;;;;;;;35.50;16.08;;;;;;;0.76;90.44;102444.22;5588711;31;34272;-70
2022/01/13 10:51:24;;;;;;;32.72;13.52;;;;;;;0.78;90.47;102445.88;5589911;31;35117;-69
2022/01/13 10:54:28;;;;;;;32.03;14.35;;;;;;;0.77;90.95;102440.72;5590578;31;34173;-69
2022/01/13 10:57:30;;;;;;;33.63;14.63;;;;;;;0.87;90.74;102437.69;5591009;31;34864;-69
2022/01/13 11:00:35;;;;;;;36.72;14.80;;;;;;;0.85;90.69;102433.44;5590688;31;34902;-69
2022/01/13 11:03:40;;;;;;;37.95;15.80;;;;;;;0.86;90.99;102416.87;5590858;31;34865;-69
2022/01/13 11:06:43;;;;;;;34.88;15.07;;;;;;;1.03;90.27;102422.31;5590671;31;34250;-69
2022/01/13 11:10:00;;;;;;;36.60;16.33;;;;;;;0.88;91.10;102430.72;5590777;31;34597;-69
2022/01/13 11:13:05;;;;;;;40.45;17.02;;;;;;;1.01;90.76;102418.06;5590659;31;34203;-69
2022/01/13 11:16:08;;;;;;;40.47;16.45;;;;;;;1.06;90.09;102416.13;5589877;31;34231;-69
2022/01/13 11:19:13;;;;;;;44.38;17.52;;;;;;;1.14;90.22;102417.53;5590628;31;34207;-69
2022/01/13 11:22:17;;;;;;;41.03;16.15;;;;;;;1.17;90.11;102401.72;5590662;31;34740;-69
2022/01/13 11:25:24;;;;;;;40.20;16.45;;;;;;;1.35;89.00;102400.19;5589852;31;34248;-69
2022/01/13 11:28:26;;;;;;;34.13;15.15;;;;;;;1.16;89.94;102400.00;5590510;31;34126;-70
2022/01/13 11:31:29;;;;;;;33.30;14.85;;;;;;;1.20;89.63;102399.00;5590740;31;35480;-69
2022/01/13 11:34:34;;;;;;;28.52;13.45;;;;;;;1.21;89.70;102400.69;5589561;31;34753;-69
2022/01/13 11:37:39;;;;;;;32.15;12.95;;;;;;;1.08;89.89;102407.31;5590215;31;34179;-69
2022/01/13 11:40:44;;;;;;;34.92;14.02;;;;;;;1.18;89.87;102405.19;5589737;31;34149;-69
2022/01/13 11:43:47;;;;;;;27.92;12.90;;;;;;;1.18;89.67;102406.06;5590071;31;35565;-69
2022/01/13 11:46:50;;;;;;;33.13;14.57;;;;;;;1.38;89.28;102410.53;5590368;31;34399;-68
2022/01/13 11:50:05;;;;;;;26.75;12.85;;;;;;;1.24;89.80;102395.38;5589778;31;34275;-69
2022/01/13 11:53:40;;;;;;;31.25;13.10;;;;;;;1.49;88.98;102397.03;5590599;31;34277;-69
2022/01/13 11:57:17;;;;;;;27.90;12.27;;;;;;;1.46;88.77;102408.44;5578220;31;34371;-69
2022/01/13 12:00:22;;;;;;;27.70;11.12;;;;;;;1.64;88.52;102397.28;5590074;31;34922;-70
2022/01/13 12:03:31;;;;;;;24.70;10.98;;;;;;;1.33;90.00;102398.53;5589398;31;34610;-69
2022/01/13 12:06:48;;;;;;;28.52;13.85;;;;;;;1.52;89.57;102402.13;5590090;31;34138;-69
2022/01/13 12:09:51;;;;;;;23.75;12.32;;;;;;;1.87;88.15;102403.34;5589688;31;34974;-69
2022/01/13 12:12:54;;;;;;;28.62;12.60;;;;;;;2.04;86.82;102403.47;5589430;31;34916;-69
2022/01/13 12:15:59;;;;;;;26.08;11.77;;;;;;;1.98;87.02;102401.12;5590172;31;35147;-70
2022/01/13 12:19:10;;;;;;;24.30;12.02;;;;;;;2.48;84.54;102402.44;5589169;31;34244;-70
2022/01/13 12:22:35;;;;;;;26.65;10.90;;;;;;;2.58;83.43;102388.03;5589799;31;34219;-71
2022/01/13 12:25:38;;;;;;;24.05;10.55;;;;;;;2.63;82.81;102382.59;5589847;31;34897;-69
2022/01/13 12:28:41;;;;;;;21.73;9.85;;;;;;;2.43;84.10;102378.22;5590199;31;34818;-70
2022/01/13 12:31:56;;;;;;;28.35;13.10;;;;;;;2.37;84.21;102375.03;5589579;31;34919;-70
2022/01/13 12:34:59;;;;;;;28.08;12.70;;;;;;;2.53;83.58;102362.94;5589969;31;34200;-69
2022/01/13 12:38:05;;;;;;;32.05;13.40;;;;;;;2.59;82.78;102349.56;5590246;31;34130;-71
2022/01/13 12:41:16;;;;;;;29.05;13.30;;;;;;;2.47;83.28;102345.72;5589825;31;34269;-69
2022/01/13 12:45:27;;;;;;;28.33;13.80;;;;;;;2.15;84.39;102336.66;5589975;31;34332;-69
2022/01/13 12:47:42;;;;;;;31.48;14.23;;;;;;;2.08;85.44;102343.06;5589648;31;34574;-70
2022/01/13 12:50:47;;;;;;;30.73;13.50;;;;;;;2.19;84.85;102364.41;5589912;31;35458;-70
2022/01/13 12:53:51;;;;;;;30.58;14.38;;;;;;;2.34;83.83;102372.53;5589745;31;35613;-69
2022/01/13 12:56:53;;;;;;;32.72;14.52;;;;;;;2.62;82.50;102383.50;5589846;31;34380;-69
2022/01/13 12:59:58;;;;;;;29.77;13.13;;;;;;;2.72;81.86;102382.16;5590265;31;35443;-69
2022/01/13 13:03:06;;;;;;;32.65;14.07;;;;;;;2.70;81.77;102384.03;5589854;31;34155;-71
2022/01/13 13:06:12;;;;;;;35.10;15.43;;;;;;;2.40;82.97;102390.59;5590038;31;34326;-68
2022/01/13 13:09:21;;;;;;;36.58;14.48;;;;;;;2.21;84.37;102366.97;5589775;31;34926;-70
2022/01/13 13:12:27;;;;;;;29.52;12.27;;;;;;;2.38;83.51;102369.69;5589659;31;34557;-70
2022/01/13 13:18:34;;;;;;;31.98;14.15;;;;;;;2.00;85.74;102354.78;5589642;31;34274;-69
2022/01/13 13:21:37;;;;;;;34.22;14.23;;;;;;;2.16;85.08;102343.62;5588374;31;34891;-69
2022/01/13 13:24:42;;;;;;;33.58;14.07;;;;;;;2.35;84.30;102334.94;5589395;31;34622;-69
2022/01/13 13:27:46;;;;;;;32.70;15.57;;;;;;;2.52;83.18;102335.88;5589399;31;34229;-69
2022/01/13 13:30:51;;;;;;;32.95;14.48;;;;;;;2.08;85.22;102329.16;5589739;31;35458;-69
2022/01/13 13:34:15;;;;;;;29.30;14.60;;;;;;;2.04;85.71;102327.56;5589400;31;34556;-69
2022/01/13 13:37:17;;;;;;;28.30;14.13;;;;;;;2.13;85.44;102322.78;5589421;31;34118;-68
2022/01/13 13:40:23;;;;;;;25.23;13.10;;;;;;;2.10;85.49;102333.41;5589237;31;34986;-69
2022/01/13 13:43:31;;;;;;;31.52;13.43;;;;;;;2.18;85.16;102336.53;5589372;31;34943;-69
2022/01/13 13:46:35;;;;;;;30.12;13.18;;;;;;;2.24;85.04;102334.56;5589220;31;34566;-69
2022/01/13 13:49:38;;;;;;;32.25;14.65;;;;;;;2.31;84.49;102325.53;5589042;31;34207;-69
2022/01/13 13:52:41;;;;;;;29.80;14.15;;;;;;;2.35;84.47;102330.56;5589457;31;34169;-69
2022/01/13 13:56:00;;;;;;;33.78;13.65;;;;;;;2.20;85.03;102328.59;5589123;31;34167;-69
2022/01/13 13:59:02;;;;;;;32.67;14.00;;;;;;;2.17;85.38;102345.31;5589224;31;35032;-69
2022/01/13 14:02:10;;;;;;;30.08;14.23;;;;;;;2.06;86.02;102342.31;5589230;31;34735;-69
2022/01/13 14:05:21;;;;;;;30.30;13.80;;;;;;;1.84;87.52;102338.87;5588990;31;34252;-69
2022/01/13 14:08:24;;;;;;;36.10;13.77;;;;;;;1.75;88.35;102344.50;5589122;31;34163;-70
2022/01/13 14:11:26;;;;;;;29.75;14.70;;;;;;;1.64;88.96;102344.09;5589104;31;34801;-69
2022/01/13 14:14:40;;;;;;;33.58;14.70;;;;;;;1.51;89.81;102340.25;5589350;31;34316;-69
2022/01/13 14:17:44;;;;;;;29.23;13.93;;;;;;;1.47;90.22;102328.22;5588856;31;34951;-69
2022/01/13 14:20:49;;;;;;;32.95;15.07;;;;;;;1.34;91.24;102327.03;5589163;31;34257;-69
2022/01/13 14:23:52;;;;;;;26.62;12.70;;;;;;;1.30;91.55;102314.09;5588529;31;34464;-70
2022/01/13 14:27:07;;;;;;;29.58;13.88;;;;;;;1.27;91.99;102311.56;5588674;31;34225;-69